Western King — CY7367 — position and weather

sailwx.info

Track history (hours):
 
Tides and Currents Weather Stations Pressure Air Temp Water Temp Dewpoint Dewpoint Depression Visibility Wind Speed Wind Dir Waves Ship Positions

Western King

Last reported at 2015-Mar-06 08:33 UTC. Time now 2015-Mar-06 09:08 UTC.
Position N 49°10' W 123°56'.

Length 23 m; draft 3.8 m.

Type: Fishing. MMSI: 316003779.

Date/timePositionNaut miles runAvg speedWind from/ knotsBaromVisibWave heightAir tempDewpointWater temp
2015-Mar-06 08:33N 49°10' W 123°56'0 0.0
2015-Mar-06 07:26N 49°10' W 123°56'0 0.0
2015-Mar-06 06:25N 49°10' W 123°56'0 0.0
2015-Mar-06 05:29N 49°10' W 123°56'6 6.2
2015-Mar-06 04:33N 49°16' W 123°59'9 8.9
2015-Mar-06 03:33N 49°20' W 124°11'7 6.5
2015-Mar-06 02:32N 49°21' W 124°21'0 0.0
2015-Mar-06 01:33N 49°21' W 124°21'0 0.1
2015-Mar-05 22:33N 49°21' W 124°21'0 0.1
2015-Mar-05 20:10N 49°21' W 124°21'5 7.5
2015-Mar-05 19:32N 49°20' W 124°14'7 7.1
2015-Mar-05 18:33N 49°16' W 124°05'0 0.1
2015-Mar-05 17:33N 49°16' W 124°05'0 0.2
2015-Mar-05 16:33N 49°16' W 124°05'7 6.5
2015-Mar-05 15:33N 49°13' W 123°56'3 2.8
2015-Mar-05 14:33N 49°10' W 123°56'0 0.0
2015-Mar-05 13:33N 49°10' W 123°56'0 0.0
2015-Mar-05 12:33N 49°10' W 123°56'0 0.0
2015-Mar-05 11:32N 49°10' W 123°56'0 0.0
2015-Mar-05 10:33N 49°10' W 123°56'0 0.0
2015-Mar-05 09:33N 49°10' W 123°56'0 0.0
2015-Mar-05 08:31N 49°10' W 123°56'0 0.0
2015-Mar-05 07:33N 49°10' W 123°56'0 0.0
2015-Mar-05 06:31N 49°10' W 123°56'0 0.0
2015-Mar-05 05:33N 49°10' W 123°56'0 0.0
2015-Mar-05 04:33N 49°10' W 123°56'0 0.0
2015-Mar-05 03:33N 49°10' W 123°56'0 0.0
2015-Mar-05 02:33N 49°10' W 123°56'2 2.3
2015-Mar-05 01:33N 49°10' W 123°53'1 0.8
2015-Mar-05 00:32N 49°10' W 123°52'1 1.3
2015-Mar-04 23:32N 49°12' W 123°53'4 3.8
2015-Mar-04 22:33N 49°14' W 123°57'0 0.3
2015-Mar-04 21:33N 49°14' W 123°57'1 1.4
2015-Mar-04 20:33N 49°13' W 123°56'1 0.7
2015-Mar-04 19:33N 49°13' W 123°55'0 0.4
2015-Mar-04 18:30N 49°13' W 123°55'0 0.1
2015-Mar-04 17:32N 49°13' W 123°55'0 0.1
2015-Mar-04 16:33N 49°13' W 123°55'6 6.0
2015-Mar-04 15:33N 49°16' W 124°04'3 3.3
2015-Mar-04 14:30N 49°18' W 124°08'6 6.7
2015-Mar-04 13:33N 49°20' W 124°17'3 2.9
2015-Mar-04 12:33N 49°21' W 124°21'0 0.0
2015-Mar-04 11:34N 49°21' W 124°21'0 0.0
2015-Mar-04 10:33N 49°21' W 124°21'0 0.0
2015-Mar-04 09:33N 49°21' W 124°21'0 0.0
2015-Mar-04 08:31N 49°21' W 124°21'0 0.0
2015-Mar-04 07:34N 49°21' W 124°21'0 0.0
2015-Mar-04 06:30N 49°21' W 124°21'0 0.0
2015-Mar-04 05:10N 49°21' W 124°21'0 0.1
2015-Mar-04 04:32N 49°21' W 124°21'8 7.9
2015-Mar-04 03:33N 49°25' W 124°32'7 6.9
2015-Mar-04 02:34N 49°29' W 124°40'1 0.8
2015-Mar-04 01:33N 49°28' W 124°41'11 1.4
2015-Mar-03 17:32N 49°36' W 124°53'5 5.0
2015-Mar-03 16:33N 49°32' W 124°49'5 5.2
2015-Mar-03 15:33N 49°28' W 124°43'8 7.9
2015-Mar-03 14:33N 49°24' W 124°34'8 8.1
2015-Mar-03 13:33N 49°22' W 124°21'1 0.1
2015-Mar-03 03:24N 49°21' W 124°21'7 8.6
2015-Mar-03 02:33N 49°20' W 124°10'9 8.9
2015-Mar-03 01:30N 49°18' W 123°56'8 8.3
2015-Mar-03 00:33N 49°14' W 123°45'9 8.8
2015-Mar-02 23:32N 49°10' W 123°33'9 8.9
2015-Mar-02 22:33N 49°07' W 123°21'7 7.2
2015-Mar-02 21:34N 49°07' W 123°10'2 2.3
2015-Mar-02 20:34N 49°08' W 123°13'5 5.0
2015-Mar-02 19:33N 49°12' W 123°18'6 5.6
2015-Mar-02 18:34N 49°13' W 123°10'3 2.5
2015-Mar-02 17:34N 49°12' W 123°06'0 0.0
2015-Mar-02 16:34N 49°12' W 123°06'0 0.0
2015-Mar-02 15:34N 49°12' W 123°06'0 0.0
2015-Mar-02 14:34N 49°12' W 123°06'0 0.0
2015-Mar-02 13:34N 49°12' W 123°06'0 0.0
2015-Mar-02 12:33N 49°12' W 123°06'0 0.0
2015-Mar-02 11:33N 49°12' W 123°06'0 0.0
2015-Mar-02 10:33N 49°12' W 123°06'0 0.0
2015-Mar-02 09:33N 49°12' W 123°06'0 0.0
2015-Mar-02 08:33N 49°12' W 123°06'0 0.0
2015-Mar-02 07:33N 49°12' W 123°06'0 0.0
2015-Mar-02 06:33N 49°12' W 123°06'0 0.0
2015-Mar-02 05:33N 49°12' W 123°06'0 0.0
2015-Mar-02 04:33N 49°12' W 123°06'0 0.0
2015-Mar-02 03:33N 49°12' W 123°06'0 0.0
2015-Mar-02 02:33N 49°12' W 123°06'0 0.0
2015-Mar-02 01:33N 49°12' W 123°06'0 0.0
2015-Mar-02 00:33N 49°12' W 123°06'0 0.0
2015-Mar-01 23:33N 49°12' W 123°06'0 0.0
2015-Mar-01 22:33N 49°12' W 123°06'0 0.0
2015-Mar-01 21:33N 49°12' W 123°06'0 0.0
2015-Mar-01 20:33N 49°12' W 123°06'0 0.0
2015-Mar-01 19:33N 49°12' W 123°06'0 0.0
2015-Mar-01 18:34N 49°12' W 123°06'0 0.0
2015-Mar-01 17:34N 49°12' W 123°06'5 4.7
2015-Mar-01 16:34N 49°13' W 123°13'7 7.5
2015-Mar-01 15:34N 49°16' W 123°23'8 8.4
2015-Mar-01 14:33N 49°18' W 123°36'8 8.3
2015-Mar-01 13:33N 49°20' W 123°48'17 8.4
2015-Mar-01 11:31N 49°24' W 124°14'8 8.5
2015-Mar-01 10:33N 49°25' W 124°26'7 7.5
2015-Mar-01 09:33N 49°27' W 124°37'0 0.4
2015-Mar-01 08:34N 49°27' W 124°38'0 0.3
2015-Mar-01 07:33N 49°28' W 124°38'0 0.2
2015-Mar-01 06:27N 49°28' W 124°39'0 0.1
2015-Mar-01 05:30N 49°28' W 124°39'0 0.3
2015-Mar-01 04:32N 49°28' W 124°39'0 0.1
2015-Mar-01 02:31N 49°28' W 124°40'0 0.3
2015-Mar-01 01:33N 49°28' W 124°40'0 0.4
2015-Mar-01 00:32N 49°28' W 124°41'0 0.1
2015-Feb-28 23:28N 49°28' W 124°41'1 0.3
2015-Feb-28 21:29N 49°28' W 124°42'1 0.6
2015-Feb-28 20:33N 49°28' W 124°42'12 6.3
2015-Feb-28 18:33N 49°23' W 124°25'3 1.4
2015-Feb-28 16:18N 49°21' W 124°21'6 8.3
2015-Feb-28 15:31N 49°26' W 124°27'18 9.0
2015-Feb-28 13:33N 49°40' W 124°45'  
Track history (hours):
 
Tides and Currents Weather Stations Pressure Air Temp Water Temp Dewpoint Dewpoint Depression Visibility Wind Speed Wind Dir Waves Ship Positions

Western King

Last reported at 2015-Mar-06 08:33 UTC. Time now 2015-Mar-06 09:08 UTC.
Position N 49°10' W 123°56'.

Length 23 m; draft 3.8 m.

Type: Fishing. MMSI: 316003779.

Date/timePositionNaut miles runAvg speedWind from/ knotsBaromVisibWave heightAir tempDewpointWater temp
2015-Mar-06 08:33N 49°10' W 123°56'0 0.0
2015-Mar-06 07:26N 49°10' W 123°56'0 0.0
2015-Mar-06 06:25N 49°10' W 123°56'0 0.0
2015-Mar-06 05:29N 49°10' W 123°56'6 6.2
2015-Mar-06 04:33N 49°16' W 123°59'9 8.9
2015-Mar-06 03:33N 49°20' W 124°11'7 6.5
2015-Mar-06 02:32N 49°21' W 124°21'0 0.0
2015-Mar-06 01:33N 49°21' W 124°21'0 0.1
2015-Mar-05 22:33N 49°21' W 124°21'0 0.1
2015-Mar-05 20:10N 49°21' W 124°21'5 7.5
2015-Mar-05 19:32N 49°20' W 124°14'7 7.1
2015-Mar-05 18:33N 49°16' W 124°05'0 0.1
2015-Mar-05 17:33N 49°16' W 124°05'0 0.2
2015-Mar-05 16:33N 49°16' W 124°05'7 6.5
2015-Mar-05 15:33N 49°13' W 123°56'3 2.8
2015-Mar-05 14:33N 49°10' W 123°56'0 0.0
2015-Mar-05 13:33N 49°10' W 123°56'0 0.0
2015-Mar-05 12:33N 49°10' W 123°56'0 0.0
2015-Mar-05 11:32N 49°10' W 123°56'0 0.0
2015-Mar-05 10:33N 49°10' W 123°56'0 0.0
2015-Mar-05 09:33N 49°10' W 123°56'0 0.0
2015-Mar-05 08:31N 49°10' W 123°56'0 0.0
2015-Mar-05 07:33N 49°10' W 123°56'0 0.0
2015-Mar-05 06:31N 49°10' W 123°56'0 0.0
2015-Mar-05 05:33N 49°10' W 123°56'0 0.0
2015-Mar-05 04:33N 49°10' W 123°56'0 0.0
2015-Mar-05 03:33N 49°10' W 123°56'0 0.0
2015-Mar-05 02:33N 49°10' W 123°56'2 2.3
2015-Mar-05 01:33N 49°10' W 123°53'1 0.8
2015-Mar-05 00:32N 49°10' W 123°52'1 1.3
2015-Mar-04 23:32N 49°12' W 123°53'4 3.8
2015-Mar-04 22:33N 49°14' W 123°57'0 0.3
2015-Mar-04 21:33N 49°14' W 123°57'1 1.4
2015-Mar-04 20:33N 49°13' W 123°56'1 0.7
2015-Mar-04 19:33N 49°13' W 123°55'0 0.4
2015-Mar-04 18:30N 49°13' W 123°55'0 0.1
2015-Mar-04 17:32N 49°13' W 123°55'0 0.1
2015-Mar-04 16:33N 49°13' W 123°55'6 6.0
2015-Mar-04 15:33N 49°16' W 124°04'3 3.3
2015-Mar-04 14:30N 49°18' W 124°08'6 6.7
2015-Mar-04 13:33N 49°20' W 124°17'3 2.9
2015-Mar-04 12:33N 49°21' W 124°21'0 0.0
2015-Mar-04 11:34N 49°21' W 124°21'0 0.0
2015-Mar-04 10:33N 49°21' W 124°21'0 0.0
2015-Mar-04 09:33N 49°21' W 124°21'0 0.0
2015-Mar-04 08:31N 49°21' W 124°21'0 0.0
2015-Mar-04 07:34N 49°21' W 124°21'0 0.0
2015-Mar-04 06:30N 49°21' W 124°21'0 0.0
2015-Mar-04 05:10N 49°21' W 124°21'0 0.1
2015-Mar-04 04:32N 49°21' W 124°21'8 7.9
2015-Mar-04 03:33N 49°25' W 124°32'7 6.9
2015-Mar-04 02:34N 49°29' W 124°40'1 0.8
2015-Mar-04 01:33N 49°28' W 124°41'11 1.4
2015-Mar-03 17:32N 49°36' W 124°53'5 5.0
2015-Mar-03 16:33N 49°32' W 124°49'5 5.2
2015-Mar-03 15:33N 49°28' W 124°43'8 7.9
2015-Mar-03 14:33N 49°24' W 124°34'8 8.1
2015-Mar-03 13:33N 49°22' W 124°21'1 0.1
2015-Mar-03 03:24N 49°21' W 124°21'7 8.6
2015-Mar-03 02:33N 49°20' W 124°10'9 8.9
2015-Mar-03 01:30N 49°18' W 123°56'8 8.3
2015-Mar-03 00:33N 49°14' W 123°45'9 8.8
2015-Mar-02 23:32N 49°10' W 123°33'9 8.9
2015-Mar-02 22:33N 49°07' W 123°21'7 7.2
2015-Mar-02 21:34N 49°07' W 123°10'2 2.3
2015-Mar-02 20:34N 49°08' W 123°13'5 5.0
2015-Mar-02 19:33N 49°12' W 123°18'6 5.6
2015-Mar-02 18:34N 49°13' W 123°10'3 2.5
2015-Mar-02 17:34N 49°12' W 123°06'0 0.0
2015-Mar-02 16:34N 49°12' W 123°06'0 0.0
2015-Mar-02 15:34N 49°12' W 123°06'0 0.0
2015-Mar-02 14:34N 49°12' W 123°06'0 0.0
2015-Mar-02 13:34N 49°12' W 123°06'0 0.0
2015-Mar-02 12:33N 49°12' W 123°06'0 0.0
2015-Mar-02 11:33N 49°12' W 123°06'0 0.0
2015-Mar-02 10:33N 49°12' W 123°06'0 0.0
2015-Mar-02 09:33N 49°12' W 123°06'0 0.0
2015-Mar-02 08:33N 49°12' W 123°06'0 0.0
2015-Mar-02 07:33N 49°12' W 123°06'0 0.0
2015-Mar-02 06:33N 49°12' W 123°06'0 0.0
2015-Mar-02 05:33N 49°12' W 123°06'0 0.0
2015-Mar-02 04:33N 49°12' W 123°06'0 0.0
2015-Mar-02 03:33N 49°12' W 123°06'0 0.0
2015-Mar-02 02:33N 49°12' W 123°06'0 0.0
2015-Mar-02 01:33N 49°12' W 123°06'0 0.0
2015-Mar-02 00:33N 49°12' W 123°06'0 0.0
2015-Mar-01 23:33N 49°12' W 123°06'0 0.0
2015-Mar-01 22:33N 49°12' W 123°06'0 0.0
2015-Mar-01 21:33N 49°12' W 123°06'0 0.0
2015-Mar-01 20:33N 49°12' W 123°06'0 0.0
2015-Mar-01 19:33N 49°12' W 123°06'0 0.0
2015-Mar-01 18:34N 49°12' W 123°06'0 0.0
2015-Mar-01 17:34N 49°12' W 123°06'5 4.7
2015-Mar-01 16:34N 49°13' W 123°13'7 7.5
2015-Mar-01 15:34N 49°16' W 123°23'8 8.4
2015-Mar-01 14:33N 49°18' W 123°36'8 8.3
2015-Mar-01 13:33N 49°20' W 123°48'17 8.4
2015-Mar-01 11:31N 49°24' W 124°14'8 8.5
2015-Mar-01 10:33N 49°25' W 124°26'7 7.5
2015-Mar-01 09:33N 49°27' W 124°37'0 0.4
2015-Mar-01 08:34N 49°27' W 124°38'0 0.3
2015-Mar-01 07:33N 49°28' W 124°38'0 0.2
2015-Mar-01 06:27N 49°28' W 124°39'0 0.1
2015-Mar-01 05:30N 49°28' W 124°39'0 0.3
2015-Mar-01 04:32N 49°28' W 124°39'0 0.1
2015-Mar-01 02:31N 49°28' W 124°40'0 0.3
2015-Mar-01 01:33N 49°28' W 124°40'0 0.4
2015-Mar-01 00:32N 49°28' W 124°41'0 0.1
2015-Feb-28 23:28N 49°28' W 124°41'1 0.3
2015-Feb-28 21:29N 49°28' W 124°42'1 0.6
2015-Feb-28 20:33N 49°28' W 124°42'12 6.3
2015-Feb-28 18:33N 49°23' W 124°25'3 1.4
2015-Feb-28 16:18N 49°21' W 124°21'6 8.3
2015-Feb-28 15:31N 49°26' W 124°27'18 9.0
2015-Feb-28 13:33N 49°40' W 124°45'  

Dump ship's entire track history